Ghena — 3FAV5 — position and weather

sailwx.info

Track history (hours):
 
Tides and Currents Weather Stations Pressure Air Temp Water Temp Dewpoint Dewpoint Depression Visibility Wind Speed Wind Dir Waves Ship Positions

Ghena

Last reported at 2018-Jan-06 22:36 UTC. Time now 2018-Feb-20 21:19 UTC.
Position N 27°42' W 015°17'.
Warning: this ship's position is 44 days out of date.

Length 190 m; draft 8.4 m.

Type: Cargo ship. MMSI: 352245000.

Date/timePositionNaut miles runAvg speedWind from/ knotsBaromVisibWave heightAir tempDewpointWater temp
2018-Jan-06 22:36N 27°42' W 015°17'216.0
2018-Jan-06 22:28N 27°44' W 015°17'816.2
2018-Jan-06 22:00N 27°52' W 015°15'713.8
2018-Jan-06 21:30N 27°58' W 015°15'510.9
2018-Jan-06 21:00N 28°03' W 015°18'5 9.6
2018-Jan-06 20:30N 28°06' W 015°22'1 2.7
2018-Jan-06 19:59N 28°06' W 015°24'0 0.7
2018-Jan-06 19:30N 28°06' W 015°24'0 0.1
2018-Jan-06 18:50N 28°06' W 015°24'0 0.0
2018-Jan-06 18:23N 28°06' W 015°24'0 0.0
2018-Jan-06 17:53N 28°06' W 015°24'0 0.1
2018-Jan-06 17:30N 28°06' W 015°24'0 0.2
2018-Jan-06 16:59N 28°06' W 015°24'0 0.0
2018-Jan-06 16:22N 28°06' W 015°24'0 0.1
2018-Jan-06 16:00N 28°06' W 015°24'0 0.1
2018-Jan-06 15:30N 28°06' W 015°24'0 0.1
2018-Jan-06 15:00N 28°06' W 015°24'0 0.0
2018-Jan-06 14:29N 28°06' W 015°24'0 0.0
2018-Jan-06 13:55N 28°06' W 015°24'0 0.1
2018-Jan-06 13:30N 28°06' W 015°24'0 0.0
2018-Jan-06 13:00N 28°06' W 015°24'0 0.0
2018-Jan-06 12:10N 28°06' W 015°24'0 0.1
2018-Jan-06 11:58N 28°06' W 015°24'0 0.0
2018-Jan-06 11:28N 28°06' W 015°24'0 0.0
2018-Jan-06 11:00N 28°06' W 015°24'0 0.1
2018-Jan-06 10:24N 28°06' W 015°24'0 0.1
2018-Jan-06 09:57N 28°06' W 015°24'0 0.0
2018-Jan-06 09:27N 28°06' W 015°24'0 0.1
2018-Jan-06 08:58N 28°06' W 015°24'0 0.0
2018-Jan-06 08:22N 28°06' W 015°24'0 0.1
2018-Jan-06 07:56N 28°06' W 015°24'0 0.1
2018-Jan-06 07:29N 28°06' W 015°24'0 0.1
2018-Jan-06 06:51N 28°06' W 015°24'0 0.1
2018-Jan-06 06:26N 28°06' W 015°24'0 0.1
2018-Jan-06 05:55N 28°06' W 015°24'0 0.1
2018-Jan-06 05:24N 28°06' W 015°24'0 0.0
2018-Jan-06 04:53N 28°06' W 015°24'0 0.1
2018-Jan-06 04:26N 28°06' W 015°24'0 0.1
2018-Jan-06 04:00N 28°06' W 015°24'0 0.1
2018-Jan-06 03:29N 28°06' W 015°24'1 1.1
2018-Jan-06 03:00N 28°07' W 015°23'2 4.5
2018-Jan-06 02:30N 28°08' W 015°21'4 7.4
2018-Jan-06 02:00N 28°10' W 015°17'4 7.3
2018-Jan-06 01:30N 28°11' W 015°14'4 7.3
2018-Jan-06 01:00N 28°14' W 015°11'4 8.0
2018-Jan-06 00:30N 28°17' W 015°08'510.7
2018-Jan-06 00:00N 28°22' W 015°05'714.9
2018-Jan-05 23:30N 28°28' W 015°00'714.5
2018-Jan-05 23:00N 28°34' W 014°56'714.6
2018-Jan-05 22:30N 28°40' W 014°51'714.6
2018-Jan-05 22:00N 28°46' W 014°46'714.5
2018-Jan-05 21:29N 28°53' W 014°42'814.7
2018-Jan-05 20:58N 28°59' W 014°37'714.9
2018-Jan-05 20:30N 29°05' W 014°33'714.9
2018-Jan-05 20:00N 29°11' W 014°28'714.5
2018-Jan-05 19:30N 29°17' W 014°23'714.6
2018-Jan-05 18:59N 29°23' W 014°19'1514.4
2018-Jan-05 17:56N 29°36' W 014°09'1614.4
2018-Jan-05 16:48N 29°50' W 013°59'714.1
2018-Jan-05 16:19N 29°55' W 013°55'414.1
2018-Jan-05 16:00N 29°59' W 013°52'714.2
2018-Jan-05 15:30N 30°05' W 013°48'714.2
2018-Jan-05 15:00N 30°11' W 013°43'714.1
2018-Jan-05 14:30N 30°17' W 013°38'1014.1
2018-Jan-05 13:46N 30°24' W 013°29'413.9
2018-Jan-05 13:30N 30°26' W 013°26'714.2
2018-Jan-05 13:00N 30°31' W 013°20'714.4
2018-Jan-05 12:30N 30°36' W 013°14'714.4
2018-Jan-05 12:00N 30°41' W 013°08'714.5
2018-Jan-05 11:30N 30°46' W 013°02'714.6
2018-Jan-05 11:00N 30°51' W 012°56'914.9
2018-Jan-05 10:24N 30°57' W 012°48'714.5
2018-Jan-05 09:56N 31°02' W 012°43'614.3
2018-Jan-05 09:30N 31°06' W 012°37'914.4
2018-Jan-05 08:51N 31°12' W 012°29'714.6
2018-Jan-05 08:23N 31°17' W 012°24'1214.8
2018-Jan-05 07:33N 31°26' W 012°13'114.9
2018-Jan-05 07:28N 31°27' W 012°12'3114.6
2018-Jan-05 05:21N 31°48' W 011°46'39514.2
2018-Jan-04 01:32N 35°58' W 005°38'113.3
2018-Jan-04 01:29N 35°58' W 005°37'612.6
2018-Jan-04 01:00N 35°59' W 005°30'611.7
2018-Jan-04 00:30N 36°01' W 005°23'611.6
2018-Jan-04 00:00N 36°02' W 005°16'612.0
2018-Jan-03 23:30N 36°03' W 005°08'25813.2
2018-Jan-03 03:58N 36°42' E 000°09'58812.4
2018-Jan-01 04:37N 36°60' E 012°23'914.7
2018-Jan-01 04:00N 36°54' E 012°33'10414.3
2017-Dec-31 20:43N 35°34' E 013°55'314.4
2017-Dec-31 20:30N 35°32' E 013°58'54713.3
2017-Dec-30 03:25N 34°18' E 024°59'812.7
2017-Dec-30 02:48N 34°19' E 025°08'1412.4
2017-Dec-30 01:40N 34°20' E 025°26'212.4
2017-Dec-30 01:29N 34°20' E 025°28'2712.6
2017-Dec-29 23:23N 34°22' E 026°00'  
Track history (hours):
 
Tides and Currents Weather Stations Pressure Air Temp Water Temp Dewpoint Dewpoint Depression Visibility Wind Speed Wind Dir Waves Ship Positions

Ghena

Last reported at 2018-Jan-06 22:36 UTC. Time now 2018-Feb-20 21:19 UTC.
Position N 27°42' W 015°17'.
Warning: this ship's position is 44 days out of date.

Length 190 m; draft 8.4 m.

Type: Cargo ship. MMSI: 352245000.

Date/timePositionNaut miles runAvg speedWind from/ knotsBaromVisibWave heightAir tempDewpointWater temp
2018-Jan-06 22:36N 27°42' W 015°17'216.0
2018-Jan-06 22:28N 27°44' W 015°17'816.2
2018-Jan-06 22:00N 27°52' W 015°15'713.8
2018-Jan-06 21:30N 27°58' W 015°15'510.9
2018-Jan-06 21:00N 28°03' W 015°18'5 9.6
2018-Jan-06 20:30N 28°06' W 015°22'1 2.7
2018-Jan-06 19:59N 28°06' W 015°24'0 0.7
2018-Jan-06 19:30N 28°06' W 015°24'0 0.1
2018-Jan-06 18:50N 28°06' W 015°24'0 0.0
2018-Jan-06 18:23N 28°06' W 015°24'0 0.0
2018-Jan-06 17:53N 28°06' W 015°24'0 0.1
2018-Jan-06 17:30N 28°06' W 015°24'0 0.2
2018-Jan-06 16:59N 28°06' W 015°24'0 0.0
2018-Jan-06 16:22N 28°06' W 015°24'0 0.1
2018-Jan-06 16:00N 28°06' W 015°24'0 0.1
2018-Jan-06 15:30N 28°06' W 015°24'0 0.1
2018-Jan-06 15:00N 28°06' W 015°24'0 0.0
2018-Jan-06 14:29N 28°06' W 015°24'0 0.0
2018-Jan-06 13:55N 28°06' W 015°24'0 0.1
2018-Jan-06 13:30N 28°06' W 015°24'0 0.0
2018-Jan-06 13:00N 28°06' W 015°24'0 0.0
2018-Jan-06 12:10N 28°06' W 015°24'0 0.1
2018-Jan-06 11:58N 28°06' W 015°24'0 0.0
2018-Jan-06 11:28N 28°06' W 015°24'0 0.0
2018-Jan-06 11:00N 28°06' W 015°24'0 0.1
2018-Jan-06 10:24N 28°06' W 015°24'0 0.1
2018-Jan-06 09:57N 28°06' W 015°24'0 0.0
2018-Jan-06 09:27N 28°06' W 015°24'0 0.1
2018-Jan-06 08:58N 28°06' W 015°24'0 0.0
2018-Jan-06 08:22N 28°06' W 015°24'0 0.1
2018-Jan-06 07:56N 28°06' W 015°24'0 0.1
2018-Jan-06 07:29N 28°06' W 015°24'0 0.1
2018-Jan-06 06:51N 28°06' W 015°24'0 0.1
2018-Jan-06 06:26N 28°06' W 015°24'0 0.1
2018-Jan-06 05:55N 28°06' W 015°24'0 0.1
2018-Jan-06 05:24N 28°06' W 015°24'0 0.0
2018-Jan-06 04:53N 28°06' W 015°24'0 0.1
2018-Jan-06 04:26N 28°06' W 015°24'0 0.1
2018-Jan-06 04:00N 28°06' W 015°24'0 0.1
2018-Jan-06 03:29N 28°06' W 015°24'1 1.1
2018-Jan-06 03:00N 28°07' W 015°23'2 4.5
2018-Jan-06 02:30N 28°08' W 015°21'4 7.4
2018-Jan-06 02:00N 28°10' W 015°17'4 7.3
2018-Jan-06 01:30N 28°11' W 015°14'4 7.3
2018-Jan-06 01:00N 28°14' W 015°11'4 8.0
2018-Jan-06 00:30N 28°17' W 015°08'510.7
2018-Jan-06 00:00N 28°22' W 015°05'714.9
2018-Jan-05 23:30N 28°28' W 015°00'714.5
2018-Jan-05 23:00N 28°34' W 014°56'714.6
2018-Jan-05 22:30N 28°40' W 014°51'714.6
2018-Jan-05 22:00N 28°46' W 014°46'714.5
2018-Jan-05 21:29N 28°53' W 014°42'814.7
2018-Jan-05 20:58N 28°59' W 014°37'714.9
2018-Jan-05 20:30N 29°05' W 014°33'714.9
2018-Jan-05 20:00N 29°11' W 014°28'714.5
2018-Jan-05 19:30N 29°17' W 014°23'714.6
2018-Jan-05 18:59N 29°23' W 014°19'1514.4
2018-Jan-05 17:56N 29°36' W 014°09'1614.4
2018-Jan-05 16:48N 29°50' W 013°59'714.1
2018-Jan-05 16:19N 29°55' W 013°55'414.1
2018-Jan-05 16:00N 29°59' W 013°52'714.2
2018-Jan-05 15:30N 30°05' W 013°48'714.2
2018-Jan-05 15:00N 30°11' W 013°43'714.1
2018-Jan-05 14:30N 30°17' W 013°38'1014.1
2018-Jan-05 13:46N 30°24' W 013°29'413.9
2018-Jan-05 13:30N 30°26' W 013°26'714.2
2018-Jan-05 13:00N 30°31' W 013°20'714.4
2018-Jan-05 12:30N 30°36' W 013°14'714.4
2018-Jan-05 12:00N 30°41' W 013°08'714.5
2018-Jan-05 11:30N 30°46' W 013°02'714.6
2018-Jan-05 11:00N 30°51' W 012°56'914.9
2018-Jan-05 10:24N 30°57' W 012°48'714.5
2018-Jan-05 09:56N 31°02' W 012°43'614.3
2018-Jan-05 09:30N 31°06' W 012°37'914.4
2018-Jan-05 08:51N 31°12' W 012°29'714.6
2018-Jan-05 08:23N 31°17' W 012°24'1214.8
2018-Jan-05 07:33N 31°26' W 012°13'114.9
2018-Jan-05 07:28N 31°27' W 012°12'3114.6
2018-Jan-05 05:21N 31°48' W 011°46'39514.2
2018-Jan-04 01:32N 35°58' W 005°38'113.3
2018-Jan-04 01:29N 35°58' W 005°37'612.6
2018-Jan-04 01:00N 35°59' W 005°30'611.7
2018-Jan-04 00:30N 36°01' W 005°23'611.6
2018-Jan-04 00:00N 36°02' W 005°16'612.0
2018-Jan-03 23:30N 36°03' W 005°08'25813.2
2018-Jan-03 03:58N 36°42' E 000°09'58812.4
2018-Jan-01 04:37N 36°60' E 012°23'914.7
2018-Jan-01 04:00N 36°54' E 012°33'10414.3
2017-Dec-31 20:43N 35°34' E 013°55'314.4
2017-Dec-31 20:30N 35°32' E 013°58'54713.3
2017-Dec-30 03:25N 34°18' E 024°59'812.7
2017-Dec-30 02:48N 34°19' E 025°08'1412.4
2017-Dec-30 01:40N 34°20' E 025°26'212.4
2017-Dec-30 01:29N 34°20' E 025°28'2712.6
2017-Dec-29 23:23N 34°22' E 026°00'  

Dump ship's entire track history